createdAt,value
2023-10-09T00:01:25.474Z,5.60
2023-10-09T00:03:30.110Z,6.63
2023-10-09T00:05:47.983Z,6.80
2023-10-09T00:07:50.987Z,7.30
2023-10-09T00:09:56.812Z,7.20
2023-10-09T00:12:01.852Z,8.90
2023-10-09T00:14:07.181Z,8.13
2023-10-09T00:16:15.724Z,7.32
2023-10-09T00:18:23.521Z,8.43
2023-10-09T00:20:40.030Z,8.07
2023-10-09T00:22:44.881Z,7.78
2023-10-09T00:24:48.386Z,7.38
2023-10-09T00:26:53.041Z,7.28
2023-10-09T00:28:55.668Z,7.50
2023-10-09T00:30:58.189Z,6.60
2023-10-09T00:33:05.470Z,7.72
2023-10-09T00:35:27.020Z,6.90
2023-10-09T00:37:35.802Z,7.47
2023-10-09T00:39:38.218Z,8.02
2023-10-09T00:41:43.616Z,7.30
2023-10-09T00:43:46.545Z,8.10
2023-10-09T00:45:52.419Z,7.65
2023-10-09T00:48:00.424Z,7.15
2023-10-09T00:50:22.444Z,8.10
2023-10-09T00:52:41.186Z,8.63
2023-10-09T00:54:45.981Z,8.07
2023-10-09T00:56:58.879Z,8.80
2023-10-09T00:59:23.333Z,8.90
2023-10-09T01:01:29.801Z,8.98
2023-10-09T01:03:35.320Z,8.27
2023-10-09T01:05:40.744Z,9.00
2023-10-09T01:07:45.969Z,9.20
2023-10-09T01:09:52.180Z,8.45
2023-10-09T01:12:01.638Z,8.18
2023-10-09T01:14:10.313Z,8.68
2023-10-09T01:16:17.379Z,8.52
2023-10-09T01:20:31.885Z,9.15
2023-10-09T01:22:34.929Z,8.88
2023-10-09T01:24:40.240Z,8.88
2023-10-09T01:26:48.153Z,8.02
2023-10-09T01:28:51.086Z,8.05
2023-10-09T01:30:53.743Z,6.90
2023-10-09T01:32:59.616Z,7.53
2023-10-09T01:35:02.559Z,7.47
2023-10-09T01:37:30.356Z,6.63
2023-10-09T01:39:33.358Z,8.02
2023-10-09T01:41:36.504Z,7.47
2023-10-09T01:43:40.390Z,7.20
2023-10-09T01:45:48.296Z,7.63
2023-10-09T01:47:57.484Z,7.15
2023-10-09T01:50:00.258Z,6.82
2023-10-09T01:52:10.137Z,7.18
2023-10-09T01:54:18.635Z,7.82
2023-10-09T01:56:21.312Z,7.03
2023-10-09T01:58:23.842Z,7.78
2023-10-09T02:00:31.031Z,7.25
2023-10-09T02:02:36.316Z,7.13
2023-10-09T02:04:42.115Z,6.97
2023-10-09T02:06:44.568Z,6.50
2023-10-09T02:08:53.241Z,5.88
2023-10-09T02:10:58.212Z,6.93
2023-10-09T02:13:08.537Z,8.18
2023-10-09T02:15:17.272Z,7.28
2023-10-09T02:17:20.567Z,6.57
2023-10-09T02:19:32.593Z,5.82
2023-10-09T02:21:35.832Z,7.68
2023-10-09T02:23:51.639Z,6.28
2023-10-09T02:26:08.083Z,7.47
2023-10-09T02:28:19.436Z,6.88
2023-10-09T02:30:31.358Z,7.07
2023-10-09T02:32:35.210Z,6.97
2023-10-09T02:34:39.957Z,6.85
2023-10-09T02:36:44.202Z,6.93
2023-10-09T02:38:50.186Z,5.97
2023-10-09T02:41:05.207Z,6.45
2023-10-09T02:43:19.576Z,5.63
2023-10-09T02:45:30.629Z,6.20
2023-10-09T02:47:39.828Z,6.15
2023-10-09T02:49:42.272Z,7.15
2023-10-09T02:51:50.442Z,6.35
2023-10-09T02:54:20.639Z,6.07
2023-10-09T02:56:39.320Z,6.22
2023-10-09T02:58:42.308Z,6.22
2023-10-09T03:00:46.475Z,6.03
2023-10-09T03:02:51.764Z,6.05
2023-10-09T03:04:56.899Z,6.53
2023-10-09T03:07:00.875Z,5.22
2023-10-09T03:09:17.860Z,5.90
2023-10-09T03:11:20.813Z,5.65
2023-10-09T03:13:23.553Z,6.88
2023-10-09T03:15:26.177Z,6.72
2023-10-09T03:17:29.238Z,5.43
2023-10-09T03:19:39.643Z,6.90
2023-10-09T03:21:43.920Z,6.43
2023-10-09T03:23:53.636Z,6.45
2023-10-09T03:26:04.029Z,6.00
2023-10-09T03:28:14.222Z,4.85
2023-10-09T03:30:25.156Z,5.22
2023-10-09T03:32:28.549Z,5.95
2023-10-09T03:34:32.921Z,5.82
2023-10-09T03:36:40.422Z,6.22
2023-10-09T03:38:44.234Z,6.30
2023-10-09T03:40:50.619Z,5.32
2023-10-09T03:42:54.428Z,6.47
2023-10-09T03:44:59.291Z,5.50
2023-10-09T03:47:03.894Z,5.32
2023-10-09T03:49:12.280Z,4.95
2023-10-09T03:51:17.168Z,5.68
2023-10-09T03:53:20.814Z,4.95
2023-10-09T03:55:29.429Z,5.10
2023-10-09T03:57:32.566Z,5.28
2023-10-09T03:59:35.822Z,5.53
2023-10-09T04:01:42.444Z,5.05
2023-10-09T04:03:46.562Z,5.53
2023-10-09T04:05:53.264Z,5.07
2023-10-09T04:07:59.674Z,5.40
2023-10-09T04:10:25.038Z,5.10
2023-10-09T04:12:28.081Z,4.93
2023-10-09T04:14:34.659Z,5.03
2023-10-09T04:16:52.854Z,5.75
2023-10-09T04:18:58.137Z,5.47
2023-10-09T04:21:19.830Z,4.53
2023-10-09T04:23:36.662Z,4.78
2023-10-09T04:25:47.209Z,5.05
2023-10-09T04:27:54.925Z,4.82
2023-10-09T04:29:58.319Z,4.70
2023-10-09T04:32:02.155Z,4.10
2023-10-09T04:34:30.358Z,4.40
2023-10-09T04:36:48.269Z,4.25
2023-10-09T04:39:17.576Z,4.20
2023-10-09T04:41:29.270Z,4.13
2023-10-09T04:43:34.882Z,4.25
2023-10-09T04:45:56.857Z,3.55
2023-10-09T04:48:00.020Z,3.78
2023-10-09T04:50:04.020Z,3.50
2023-10-09T04:52:10.745Z,4.18
2023-10-09T04:54:17.805Z,3.60
2023-10-09T04:56:25.706Z,3.88
2023-10-09T04:58:28.920Z,3.55
2023-10-09T05:00:32.081Z,3.35
2023-10-09T05:02:38.017Z,3.28
2023-10-09T05:04:41.390Z,3.00
2023-10-09T05:06:51.532Z,3.28
2023-10-09T05:08:56.173Z,2.58
2023-10-09T05:11:02.255Z,2.58
2023-10-09T05:13:10.432Z,2.10
2023-10-09T05:15:15.211Z,2.15
2023-10-09T05:17:17.872Z,2.13
2023-10-09T05:19:43.723Z,1.83
2023-10-09T05:21:47.084Z,1.50
2023-10-09T05:28:27.393Z,1.50
2023-10-09T05:44:20.781Z,1.25
2023-10-09T05:55:21.294Z,1.52
2023-10-09T06:06:04.749Z,1.33
2023-10-09T06:12:35.235Z,1.55
2023-10-09T06:19:09.563Z,1.48
2023-10-09T06:22:28.393Z,2.10
2023-10-09T06:27:00.444Z,1.80
2023-10-09T06:29:32.273Z,1.65
2023-10-09T06:31:56.677Z,2.00
2023-10-09T06:34:17.513Z,1.90
2023-10-09T06:36:20.418Z,2.80
2023-10-09T06:38:25.147Z,3.15
2023-10-09T06:40:40.502Z,2.92
2023-10-09T06:42:43.441Z,2.63
2023-10-09T06:44:55.410Z,2.38
2023-10-09T06:47:09.520Z,2.83
2023-10-09T06:49:30.566Z,2.70
2023-10-09T06:51:34.235Z,2.97
2023-10-09T06:54:13.092Z,2.58
2023-10-09T06:56:44.979Z,2.47
2023-10-09T06:58:49.301Z,1.80
2023-10-09T07:01:00.790Z,2.50
2023-10-09T07:03:13.004Z,2.65
2023-10-09T07:05:19.318Z,3.38
2023-10-09T07:07:22.408Z,3.08
2023-10-09T07:09:25.690Z,3.55
2023-10-09T07:11:43.003Z,3.83
2023-10-09T07:13:54.983Z,3.58
2023-10-09T07:16:16.336Z,4.07
2023-10-09T07:18:25.082Z,4.80
2023-10-09T07:20:47.098Z,3.67
2023-10-09T07:22:58.157Z,3.17
2023-10-09T07:25:16.327Z,3.50
2023-10-09T07:27:19.310Z,3.40
2023-10-09T07:29:25.489Z,3.55
2023-10-09T07:31:41.216Z,3.58
2023-10-09T07:33:58.680Z,3.85
2023-10-09T07:36:09.446Z,4.43
2023-10-09T07:38:46.640Z,3.72
2023-10-09T07:41:01.371Z,4.07
2023-10-09T07:43:07.154Z,4.55
2023-10-09T07:45:22.701Z,4.72
2023-10-09T07:47:45.870Z,4.28
2023-10-09T07:49:55.392Z,3.83
2023-10-09T07:52:00.620Z,5.53
2023-10-09T07:54:10.326Z,4.50
2023-10-09T07:56:22.336Z,4.60
2023-10-09T07:58:26.638Z,4.40
2023-10-09T08:00:52.142Z,4.60
2023-10-09T08:03:02.202Z,4.32
2023-10-09T08:05:08.686Z,4.15
2023-10-09T08:08:02.345Z,4.43
2023-10-09T08:10:12.952Z,4.50
2023-10-09T08:12:17.690Z,4.40
2023-10-09T08:14:36.086Z,4.10
2023-10-09T08:16:38.669Z,3.88
2023-10-09T08:18:46.548Z,3.83
2023-10-09T08:20:58.238Z,4.65
2023-10-09T08:23:00.834Z,3.97
2023-10-09T08:25:04.391Z,4.75
2023-10-09T08:27:30.896Z,3.70
2023-10-09T08:29:36.408Z,4.03
2023-10-09T08:31:48.487Z,4.00
2023-10-09T08:36:09.986Z,3.83
2023-10-09T08:38:12.889Z,4.22
2023-10-09T08:40:22.127Z,3.47
2023-10-09T08:42:27.385Z,3.90
2023-10-09T08:44:35.366Z,4.30
2023-10-09T08:46:39.891Z,3.92
2023-10-09T08:48:43.296Z,4.45
2023-10-09T08:50:48.685Z,4.90
2023-10-09T08:52:53.091Z,4.97
2023-10-09T08:54:56.017Z,4.00
2023-10-09T08:57:00.053Z,3.50
2023-10-09T08:59:03.796Z,4.55
2023-10-09T09:01:06.870Z,4.35
2023-10-09T09:03:09.917Z,3.88
2023-10-09T09:05:22.477Z,5.22
2023-10-09T09:07:33.348Z,3.72
2023-10-09T09:09:37.138Z,4.63
2023-10-09T09:11:50.523Z,4.70
2023-10-09T09:14:08.950Z,5.00
2023-10-09T09:16:32.959Z,4.70
2023-10-09T09:18:53.816Z,5.03
2023-10-09T09:20:58.286Z,6.22
2023-10-09T09:23:03.790Z,5.22
2023-10-09T09:25:11.879Z,5.32
2023-10-09T09:27:16.999Z,5.20
2023-10-09T09:29:21.711Z,4.68
2023-10-09T09:31:24.802Z,5.28
2023-10-09T09:33:44.436Z,5.32
2023-10-09T09:36:04.168Z,5.32
2023-10-09T09:38:08.965Z,4.40
2023-10-09T09:40:35.310Z,4.32
2023-10-09T09:42:42.551Z,4.57
2023-10-09T09:44:50.285Z,3.92
2023-10-09T09:46:56.805Z,4.57
2023-10-09T09:49:03.514Z,3.95
2023-10-09T09:51:10.144Z,4.13
2023-10-09T09:53:21.312Z,3.75
2023-10-09T09:55:33.019Z,3.75
2023-10-09T09:57:41.009Z,4.25
2023-10-09T09:59:51.829Z,4.50
2023-10-09T10:01:58.909Z,4.25
2023-10-09T10:06:21.771Z,3.85
2023-10-09T10:08:34.958Z,3.83
2023-10-09T10:10:39.268Z,3.85
2023-10-09T10:13:02.826Z,3.63
2023-10-09T10:15:18.335Z,6.45
2023-10-09T10:17:23.646Z,6.32
2023-10-09T10:19:26.829Z,6.28
2023-10-09T10:21:34.291Z,5.35
2023-10-09T10:23:38.398Z,4.75
2023-10-09T10:25:44.397Z,4.68
2023-10-09T10:28:40.883Z,4.38
2023-10-09T10:30:53.803Z,3.63
2023-10-09T10:32:59.871Z,4.25
2023-10-09T10:35:08.183Z,4.78
2023-10-09T10:37:13.489Z,4.32
2023-10-09T10:39:44.962Z,4.63
2023-10-09T10:42:01.043Z,4.03
2023-10-09T10:44:35.538Z,4.90
2023-10-09T10:46:45.304Z,4.70
2023-10-09T10:48:50.705Z,5.50
2023-10-09T10:50:59.710Z,4.70
2023-10-09T10:53:17.536Z,4.90
2023-10-09T10:55:32.458Z,5.30
2023-10-09T10:58:07.377Z,5.47
2023-10-09T11:00:36.774Z,5.63
2023-10-09T11:02:42.408Z,5.22
2023-10-09T11:04:55.198Z,5.95
2023-10-09T11:07:08.246Z,6.30
2023-10-09T11:09:23.325Z,6.63
2023-10-09T11:11:33.647Z,6.78
2023-10-09T11:13:38.361Z,5.97
2023-10-09T11:15:48.138Z,6.18
2023-10-09T11:18:00.649Z,6.32
2023-10-09T11:20:24.218Z,6.78
2023-10-09T11:22:29.982Z,7.68
2023-10-09T11:24:36.654Z,6.47
2023-10-09T11:26:41.957Z,6.50
2023-10-09T11:28:50.480Z,6.10
2023-10-09T11:30:56.966Z,6.05
2023-10-09T11:33:07.787Z,6.18
2023-10-09T11:35:19.364Z,7.53
2023-10-09T11:37:32.657Z,5.25
2023-10-09T11:39:36.976Z,6.50
2023-10-09T11:41:46.052Z,5.70
2023-10-09T11:43:53.377Z,5.47
2023-10-09T11:46:12.827Z,5.18
2023-10-09T11:48:35.366Z,5.45
2023-10-09T11:51:04.011Z,5.80
2023-10-09T11:53:11.057Z,5.97
2023-10-09T11:55:18.487Z,6.72
2023-10-09T11:57:30.305Z,5.82
2023-10-09T11:59:43.838Z,5.78
2023-10-09T12:01:54.659Z,6.40
2023-10-09T12:03:57.626Z,6.53
2023-10-09T12:06:13.619Z,5.63
2023-10-09T12:08:18.233Z,5.38
2023-10-09T12:10:26.269Z,5.93
2023-10-09T12:12:30.010Z,6.05
2023-10-09T12:14:35.169Z,5.22
2023-10-09T12:16:42.157Z,5.55
2023-10-09T12:20:56.852Z,5.85
2023-10-09T12:23:02.869Z,6.13
2023-10-09T12:25:10.938Z,6.80
2023-10-09T12:27:14.213Z,7.28
2023-10-09T12:29:17.172Z,7.32
2023-10-09T12:31:25.890Z,7.88
2023-10-09T12:33:31.309Z,6.90
2023-10-09T12:35:42.165Z,7.05
2023-10-09T12:37:45.374Z,7.57
2023-10-09T12:39:49.212Z,7.05
2023-10-09T12:41:55.207Z,6.78
2023-10-09T12:44:01.682Z,7.80
2023-10-09T12:46:10.266Z,7.78
2023-10-09T12:48:14.485Z,7.72
2023-10-09T12:50:17.361Z,7.35
2023-10-09T12:52:21.569Z,6.28
2023-10-09T12:54:31.894Z,8.20
2023-10-09T12:56:39.685Z,7.70
2023-10-09T12:59:01.534Z,7.93
2023-10-09T13:01:14.315Z,7.32
2023-10-09T13:03:19.196Z,9.63
2023-10-09T13:05:27.719Z,9.40
2023-10-09T13:07:30.331Z,9.80
2023-10-09T13:09:45.893Z,8.30
2023-10-09T13:11:50.292Z,8.50
2023-10-09T13:13:53.473Z,9.40
2023-10-09T13:15:56.783Z,9.25
2023-10-09T13:17:59.542Z,9.75
2023-10-09T13:20:03.015Z,8.48
2023-10-09T13:22:14.929Z,9.60
2023-10-09T13:24:17.626Z,8.57
2023-10-09T13:26:32.958Z,7.60
2023-10-09T13:28:39.372Z,7.93
2023-10-09T13:30:50.963Z,9.50
2023-10-09T13:32:54.242Z,8.82
2023-10-09T13:34:57.330Z,8.63
2023-10-09T13:37:10.852Z,8.55
2023-10-09T13:39:28.627Z,8.35
2023-10-09T13:41:31.232Z,8.85
2023-10-09T13:43:34.574Z,7.60
2023-10-09T13:45:42.511Z,8.63
2023-10-09T13:47:47.981Z,9.20
2023-10-09T13:49:55.285Z,8.20
2023-10-09T13:52:04.553Z,8.25
2023-10-09T13:54:09.104Z,7.90
2023-10-09T13:56:16.888Z,8.05
2023-10-09T13:58:25.497Z,8.13
2023-10-09T14:00:35.854Z,8.25
2023-10-09T14:02:39.692Z,8.48
2023-10-09T14:04:42.288Z,7.68
2023-10-09T14:06:46.595Z,7.05
2023-10-09T14:08:49.630Z,8.30
2023-10-09T14:10:52.335Z,7.40
2023-10-09T14:12:57.463Z,7.97
2023-10-09T14:15:02.223Z,7.32
2023-10-09T14:17:13.323Z,7.28
2023-10-09T14:19:16.246Z,8.38
2023-10-09T14:21:19.936Z,7.53
2023-10-09T14:23:22.668Z,7.18
2023-10-09T14:25:25.543Z,7.40
2023-10-09T14:27:31.551Z,8.80
2023-10-09T14:29:34.085Z,10.93
2023-10-09T14:31:40.512Z,7.63
2023-10-09T14:33:44.906Z,8.85
2023-10-09T14:35:48.012Z,10.35
2023-10-09T14:37:51.144Z,11.80
2023-10-09T14:39:54.633Z,10.45
2023-10-09T14:41:59.129Z,9.70
2023-10-09T14:44:02.837Z,9.00
2023-10-09T14:46:12.259Z,8.98
2023-10-09T14:48:16.405Z,9.43
2023-10-09T14:50:23.882Z,9.18
2023-10-09T14:52:29.061Z,8.73
2023-10-09T14:54:31.765Z,9.38
2023-10-09T14:56:38.316Z,9.55
2023-10-09T14:58:41.617Z,10.07
2023-10-09T15:00:48.341Z,10.20
2023-10-09T15:02:54.706Z,8.55
2023-10-09T15:04:58.862Z,10.60
2023-10-09T15:07:03.210Z,8.80
2023-10-09T15:09:23.270Z,8.15
2023-10-09T15:11:27.887Z,8.10
2023-10-09T15:13:32.436Z,7.80
2023-10-09T15:15:35.267Z,7.35
2023-10-09T15:17:38.318Z,7.40
2023-10-09T15:19:41.340Z,7.05
2023-10-09T15:21:47.702Z,7.60
2023-10-09T15:23:52.945Z,6.78
2023-10-09T15:25:56.384Z,6.30
2023-10-09T15:27:59.601Z,7.05
2023-10-09T15:30:02.402Z,7.70
2023-10-09T15:32:15.966Z,7.20
2023-10-09T15:34:20.214Z,7.97
2023-10-09T15:36:24.745Z,6.50
2023-10-09T15:38:27.701Z,6.25
2023-10-09T15:40:37.236Z,6.85
2023-10-09T15:42:40.007Z,6.03
2023-10-09T15:44:43.633Z,6.40
2023-10-09T15:46:49.322Z,6.40
2023-10-09T15:48:54.350Z,6.60
2023-10-09T15:50:57.105Z,7.05
2023-10-09T15:53:00.310Z,6.35
2023-10-09T15:55:03.574Z,5.68
2023-10-09T15:57:13.077Z,5.70
2023-10-09T15:59:18.486Z,7.95
2023-10-09T16:01:21.595Z,7.80
2023-10-09T16:03:26.155Z,8.30
2023-10-09T16:05:30.483Z,6.53
2023-10-09T16:07:33.476Z,6.60
2023-10-09T16:09:40.763Z,6.72
2023-10-09T16:11:46.274Z,6.63
2023-10-09T16:13:48.969Z,6.72
2023-10-09T16:15:51.912Z,6.60
2023-10-09T16:18:05.371Z,7.30
2023-10-09T16:20:15.714Z,8.10
2023-10-09T16:22:19.526Z,7.20
2023-10-09T16:24:22.192Z,7.03
2023-10-09T16:26:25.992Z,7.38
2023-10-09T16:28:29.969Z,6.72
2023-10-09T16:30:32.573Z,6.53
2023-10-09T16:32:35.632Z,6.32
2023-10-09T16:34:40.700Z,6.43
2023-10-09T16:36:43.610Z,6.57
2023-10-09T16:38:48.201Z,6.57
2023-10-09T16:40:56.268Z,7.05
2023-10-09T16:43:02.928Z,8.05
2023-10-09T16:45:10.529Z,7.00
2023-10-09T16:47:13.365Z,6.93
2023-10-09T16:49:16.108Z,6.40
2023-10-09T16:51:23.756Z,6.60
2023-10-09T16:53:27.276Z,7.85
2023-10-09T16:55:32.130Z,7.30
2023-10-09T16:57:36.364Z,6.30
2023-10-09T16:59:40.293Z,7.75
2023-10-09T17:01:46.555Z,7.30
2023-10-09T17:03:56.599Z,6.97
2023-10-09T17:06:00.116Z,7.95
2023-10-09T17:08:11.505Z,8.15
2023-10-09T17:10:17.508Z,7.45
2023-10-09T17:12:20.373Z,9.90
2023-10-09T17:14:28.064Z,7.72
2023-10-09T17:16:32.653Z,7.88
2023-10-09T17:18:36.161Z,8.20
2023-10-09T17:20:50.291Z,7.30
2023-10-09T17:22:53.310Z,7.57
2023-10-09T17:24:56.179Z,7.75
2023-10-09T17:26:59.468Z,8.85
2023-10-09T17:29:02.740Z,10.13
2023-10-09T17:31:06.186Z,9.88
2023-10-09T17:33:09.618Z,9.32
2023-10-09T17:35:14.213Z,8.35
2023-10-09T17:37:17.010Z,8.63
2023-10-09T17:39:27.786Z,9.88
2023-10-09T17:41:32.236Z,8.65
2023-10-09T17:43:34.755Z,9.95
2023-10-09T17:45:42.936Z,8.27
2023-10-09T17:47:47.015Z,9.82
2023-10-09T17:49:50.340Z,11.52
2023-10-09T17:51:55.026Z,10.18
2023-10-09T17:53:59.216Z,10.95
2023-10-09T17:56:02.132Z,11.43
2023-10-09T17:58:08.567Z,11.63
2023-10-09T18:00:23.939Z,10.88
2023-10-09T18:02:29.822Z,11.55
2023-10-09T18:04:36.992Z,11.32
2023-10-09T18:06:41.366Z,11.82
2023-10-09T18:08:44.331Z,11.38
2023-10-09T18:10:47.143Z,9.75
2023-10-09T18:12:51.334Z,9.98
2023-10-09T18:15:01.256Z,9.55
2023-10-09T18:17:04.568Z,11.32
2023-10-09T18:19:08.893Z,10.68
2023-10-09T18:21:12.304Z,11.48
2023-10-09T18:23:15.328Z,11.73
2023-10-09T18:25:20.367Z,12.10
2023-10-09T18:27:24.257Z,11.60
2023-10-09T18:29:27.316Z,10.82
2023-10-09T18:31:30.744Z,11.85
2023-10-09T18:33:34.734Z,11.75
2023-10-09T18:35:40.003Z,11.43
2023-10-09T18:37:43.183Z,11.55
2023-10-09T18:39:48.442Z,10.65
2023-10-09T18:41:55.755Z,12.55
2023-10-09T18:44:01.356Z,12.48
2023-10-09T18:46:11.112Z,13.00
2023-10-09T18:48:14.137Z,12.75
2023-10-09T18:50:18.161Z,11.55
2023-10-09T18:52:21.974Z,11.25
2023-10-09T18:54:25.781Z,12.43
2023-10-09T18:56:30.023Z,16.92
2023-10-09T18:58:33.421Z,15.50
2023-10-09T19:00:42.862Z,14.80
2023-10-09T19:02:45.678Z,14.90
2023-10-09T19:04:49.034Z,14.32
2023-10-09T19:06:55.452Z,14.73
2023-10-09T19:09:00.169Z,13.43
2023-10-09T19:11:10.962Z,13.13
2023-10-09T19:13:15.831Z,14.35
2023-10-09T19:15:20.300Z,15.00
2023-10-09T19:17:23.314Z,13.95
2023-10-09T19:19:26.926Z,14.30
2023-10-09T19:21:31.077Z,14.38
2023-10-09T19:23:34.881Z,15.90
2023-10-09T19:25:38.248Z,14.15
2023-10-09T19:27:40.843Z,16.60
2023-10-09T19:29:47.384Z,15.98
2023-10-09T19:31:52.481Z,15.50
2023-10-09T19:33:55.966Z,15.48
2023-10-09T19:36:13.419Z,15.70
2023-10-09T19:38:17.870Z,15.75
2023-10-09T19:40:23.208Z,14.07
2023-10-09T19:42:26.517Z,14.63
2023-10-09T19:44:30.327Z,13.48
2023-10-09T19:46:34.968Z,15.05
2023-10-09T19:48:38.022Z,13.35
2023-10-09T19:50:41.222Z,11.65
2023-10-09T19:52:52.137Z,13.40
2023-10-09T19:54:57.846Z,11.52
2023-10-09T19:57:00.767Z,13.95
2023-10-09T19:59:03.544Z,14.48
2023-10-09T20:01:09.331Z,14.32
2023-10-09T20:03:12.976Z,11.68
2023-10-09T20:05:17.386Z,14.13
2023-10-09T20:07:20.889Z,13.90
2023-10-09T20:09:23.739Z,12.90
2023-10-09T20:11:26.893Z,13.52
2023-10-09T20:13:29.698Z,13.90
2023-10-09T20:15:35.344Z,12.63
2023-10-09T20:17:38.634Z,13.57
2023-10-09T20:19:41.753Z,13.20
2023-10-09T20:21:45.110Z,14.48
2023-10-09T20:23:49.992Z,13.32
2023-10-09T20:26:06.803Z,12.45
2023-10-09T20:28:12.352Z,13.50
2023-10-09T20:30:16.286Z,11.88
2023-10-09T20:32:21.283Z,12.55
2023-10-09T20:34:26.477Z,12.38
2023-10-09T20:36:30.110Z,12.70
2023-10-09T20:38:32.757Z,11.38
2023-10-09T20:40:36.859Z,14.60
2023-10-09T20:42:40.205Z,11.77
2023-10-09T20:44:44.215Z,11.85
2023-10-09T20:46:49.927Z,13.55
2023-10-09T20:48:52.816Z,12.18
2023-10-09T20:50:55.557Z,12.40
2023-10-09T20:52:59.024Z,12.02
2023-10-09T20:55:03.130Z,12.05
2023-10-09T20:57:06.145Z,10.45
2023-10-09T20:59:10.193Z,11.02
2023-10-09T21:01:16.751Z,13.50
2023-10-09T21:03:21.328Z,14.25
2023-10-09T21:05:26.845Z,13.45
2023-10-09T21:07:31.953Z,13.98
2023-10-09T21:09:36.453Z,14.80
2023-10-09T21:11:39.295Z,14.05
2023-10-09T21:13:42.143Z,11.70
2023-10-09T21:15:47.340Z,13.23
2023-10-09T21:17:53.826Z,14.60
2023-10-09T21:19:56.510Z,13.50
2023-10-09T21:21:59.267Z,12.35
2023-10-09T21:24:01.938Z,12.75
2023-10-09T21:26:05.244Z,11.38
2023-10-09T21:28:08.721Z,12.05
2023-10-09T21:30:12.755Z,11.98
2023-10-09T21:32:15.408Z,12.77
2023-10-09T21:34:18.317Z,11.88
2023-10-09T21:36:21.515Z,10.43
2023-10-09T21:38:26.225Z,11.63
2023-10-09T21:40:30.447Z,10.73
2023-10-09T21:42:33.955Z,12.50
2023-10-09T21:44:36.905Z,12.88
2023-10-09T21:46:39.314Z,11.15
2023-10-09T21:48:44.373Z,10.98
2023-10-09T21:50:47.069Z,12.40
2023-10-09T21:52:49.893Z,11.68
2023-10-09T21:54:53.253Z,13.07
2023-10-09T21:56:55.837Z,13.70
2023-10-09T21:58:58.462Z,13.15
2023-10-09T22:01:03.834Z,12.65
2023-10-09T22:03:12.764Z,14.63
2023-10-09T22:05:16.195Z,13.98
2023-10-09T22:07:31.404Z,13.23
2023-10-09T22:09:35.141Z,11.90
2023-10-09T22:11:37.964Z,12.55
2023-10-09T22:13:40.578Z,13.93
2023-10-09T22:15:47.100Z,12.82
2023-10-09T22:17:50.639Z,12.75
2023-10-09T22:19:55.282Z,12.60
2023-10-09T22:21:58.131Z,13.63
2023-10-09T22:24:00.575Z,12.40
2023-10-09T22:26:03.609Z,12.48
2023-10-09T22:28:10.652Z,11.85
2023-10-09T22:32:18.635Z,12.00
2023-10-09T22:34:21.478Z,12.75
2023-10-09T22:36:37.958Z,12.13
2023-10-09T22:38:52.405Z,12.77
2023-10-09T22:40:55.305Z,13.00
2023-10-09T22:42:57.972Z,13.18
2023-10-09T22:45:00.849Z,12.85
2023-10-09T22:47:09.684Z,12.05
2023-10-09T22:49:16.270Z,12.60
2023-10-09T22:51:26.038Z,13.85
2023-10-09T22:53:39.717Z,12.75
2023-10-09T22:55:52.270Z,15.15
2023-10-09T22:57:58.037Z,13.25
2023-10-09T23:00:02.002Z,13.50
2023-10-09T23:02:06.575Z,12.68
2023-10-09T23:04:15.665Z,13.80
2023-10-09T23:06:20.712Z,12.18
2023-10-09T23:08:23.803Z,11.93
2023-10-09T23:10:26.243Z,12.88
2023-10-09T23:12:36.553Z,12.25
2023-10-09T23:14:41.241Z,11.38
2023-10-09T23:16:50.508Z,11.90
2023-10-09T23:19:15.572Z,13.30
2023-10-09T23:21:22.706Z,14.55
2023-10-09T23:23:28.704Z,14.93
2023-10-09T23:25:35.047Z,14.32
2023-10-09T23:27:39.563Z,14.45
2023-10-09T23:29:53.210Z,14.77
2023-10-09T23:32:15.634Z,14.85
2023-10-09T23:34:21.528Z,13.77
2023-10-09T23:36:28.459Z,14.77
2023-10-09T23:41:05.679Z,13.70
2023-10-09T23:43:32.330Z,15.80
2023-10-09T23:45:35.194Z,14.27
2023-10-09T23:47:42.753Z,14.27
2023-10-09T23:49:45.722Z,15.07
2023-10-09T23:51:56.009Z,14.40
2023-10-09T23:54:02.998Z,17.88
2023-10-09T23:56:11.941Z,15.43
2023-10-09T23:58:19.531Z,15.43
